sensor_id;sensor_type;location;lat;lon;timestamp;P1;durP1;ratioP1;P2;durP2;ratioP2
20758;SDS011;10539;53.686;9.158;2022-09-09T00:00:17;120.57;;;23.83;;
20758;SDS011;10539;53.686;9.158;2022-09-09T00:02:50;94.73;;;23.13;;
20758;SDS011;10539;53.686;9.158;2022-09-09T00:05:39;93.83;;;23.27;;
20758;SDS011;10539;53.686;9.158;2022-09-09T00:08:15;102.53;;;23.97;;
20758;SDS011;10539;53.686;9.158;2022-09-09T00:10:48;70.43;;;21.87;;
20758;SDS011;10539;53.686;9.158;2022-09-09T00:13:37;82.90;;;23.27;;
20758;SDS011;10539;53.686;9.158;2022-09-09T00:16:14;57.13;;;21.27;;
20758;SDS011;10539;53.686;9.158;2022-09-09T00:21:30;68.33;;;22.93;;
20758;SDS011;10539;53.686;9.158;2022-09-09T00:24:15;135.67;;;27.17;;
20758;SDS011;10539;53.686;9.158;2022-09-09T00:26:51;233.97;;;28.10;;
20758;SDS011;10539;53.686;9.158;2022-09-09T00:29:35;266.40;;;28.60;;
20758;SDS011;10539;53.686;9.158;2022-09-09T00:32:19;320.00;;;29.83;;
20758;SDS011;10539;53.686;9.158;2022-09-09T00:35:12;201.90;;;27.30;;
20758;SDS011;10539;53.686;9.158;2022-09-09T00:37:55;385.03;;;31.10;;
20758;SDS011;10539;53.686;9.158;2022-09-09T00:40:32;592.57;;;39.40;;
20758;SDS011;10539;53.686;9.158;2022-09-09T00:43:10;492.60;;;35.97;;
20758;SDS011;10539;53.686;9.158;2022-09-09T00:48:54;521.20;;;37.73;;
20758;SDS011;10539;53.686;9.158;2022-09-09T00:51:50;372.57;;;34.87;;
20758;SDS011;10539;53.686;9.158;2022-09-09T00:57:30;423.63;;;34.70;;
20758;SDS011;10539;53.686;9.158;2022-09-09T01:08:03;330.20;;;34.03;;
20758;SDS011;10539;53.686;9.158;2022-09-09T01:10:52;290.63;;;33.00;;
20758;SDS011;10539;53.686;9.158;2022-09-09T01:13:26;244.87;;;32.57;;
20758;SDS011;10539;53.686;9.158;2022-09-09T01:15:57;260.87;;;34.73;;
20758;SDS011;10539;53.686;9.158;2022-09-09T01:18:37;243.30;;;34.03;;
20758;SDS011;10539;53.686;9.158;2022-09-09T01:26:37;339.57;;;34.27;;
20758;SDS011;10539;53.686;9.158;2022-09-09T01:29:11;423.80;;;38.00;;
20758;SDS011;10539;53.686;9.158;2022-09-09T01:31:41;275.53;;;32.57;;
20758;SDS011;10539;53.686;9.158;2022-09-09T01:34:28;333.37;;;35.07;;
20758;SDS011;10539;53.686;9.158;2022-09-09T01:37:07;238.27;;;31.87;;
20758;SDS011;10539;53.686;9.158;2022-09-09T01:39:35;270.10;;;33.93;;
20758;SDS011;10539;53.686;9.158;2022-09-09T01:42:04;328.17;;;35.13;;
20758;SDS011;10539;53.686;9.158;2022-09-09T01:44:31;273.40;;;34.47;;
20758;SDS011;10539;53.686;9.158;2022-09-09T01:46:57;286.73;;;33.93;;
20758;SDS011;10539;53.686;9.158;2022-09-09T01:49:23;270.60;;;34.23;;
20758;SDS011;10539;53.686;9.158;2022-09-09T01:51:50;302.53;;;33.37;;
20758;SDS011;10539;53.686;9.158;2022-09-09T01:54:22;257.77;;;31.50;;
20758;SDS011;10539;53.686;9.158;2022-09-09T02:13:35;188.53;;;30.43;;
20758;SDS011;10539;53.686;9.158;2022-09-09T02:18:40;179.00;;;31.00;;
20758;SDS011;10539;53.686;9.158;2022-09-09T02:21:16;200.33;;;31.47;;
20758;SDS011;10539;53.686;9.158;2022-09-09T02:23:43;243.97;;;31.37;;
20758;SDS011;10539;53.686;9.158;2022-09-09T02:26:12;166.13;;;29.80;;
20758;SDS011;10539;53.686;9.158;2022-09-09T02:28:44;131.97;;;28.13;;
20758;SDS011;10539;53.686;9.158;2022-09-09T02:31:12;320.17;;;32.30;;
20758;SDS011;10539;53.686;9.158;2022-09-09T02:33:42;206.67;;;28.57;;
20758;SDS011;10539;53.686;9.158;2022-09-09T02:36:11;305.97;;;31.33;;
20758;SDS011;10539;53.686;9.158;2022-09-09T02:38:42;261.20;;;29.50;;
20758;SDS011;10539;53.686;9.158;2022-09-09T02:41:15;377.20;;;32.77;;
20758;SDS011;10539;53.686;9.158;2022-09-09T02:43:46;397.20;;;35.03;;
20758;SDS011;10539;53.686;9.158;2022-09-09T02:49:03;283.77;;;29.33;;
20758;SDS011;10539;53.686;9.158;2022-09-09T02:57:20;368.30;;;33.07;;
20758;SDS011;10539;53.686;9.158;2022-09-09T02:59:46;270.27;;;28.63;;
20758;SDS011;10539;53.686;9.158;2022-09-09T03:02:12;372.67;;;33.10;;
20758;SDS011;10539;53.686;9.158;2022-09-09T03:04:38;369.20;;;32.03;;
20758;SDS011;10539;53.686;9.158;2022-09-09T03:07:05;179.50;;;24.67;;
20758;SDS011;10539;53.686;9.158;2022-09-09T03:09:31;213.90;;;25.03;;
20758;SDS011;10539;53.686;9.158;2022-09-09T03:11:58;210.17;;;26.20;;
20758;SDS011;10539;53.686;9.158;2022-09-09T03:14:23;176.53;;;24.17;;
20758;SDS011;10539;53.686;9.158;2022-09-09T03:16:53;408.73;;;33.27;;
20758;SDS011;10539;53.686;9.158;2022-09-09T03:19:20;282.53;;;30.03;;
20758;SDS011;10539;53.686;9.158;2022-09-09T03:21:46;265.97;;;27.23;;
20758;SDS011;10539;53.686;9.158;2022-09-09T03:24:14;302.97;;;30.40;;
20758;SDS011;10539;53.686;9.158;2022-09-09T03:26:40;275.50;;;30.10;;
20758;SDS011;10539;53.686;9.158;2022-09-09T03:29:10;245.87;;;28.20;;
20758;SDS011;10539;53.686;9.158;2022-09-09T03:31:37;322.97;;;31.73;;
20758;SDS011;10539;53.686;9.158;2022-09-09T03:34:04;233.80;;;30.27;;
20758;SDS011;10539;53.686;9.158;2022-09-09T03:36:30;193.67;;;29.20;;
20758;SDS011;10539;53.686;9.158;2022-09-09T03:38:56;144.23;;;26.27;;
20758;SDS011;10539;53.686;9.158;2022-09-09T03:41:22;188.67;;;29.53;;
20758;SDS011;10539;53.686;9.158;2022-09-09T03:43:52;290.57;;;33.17;;
20758;SDS011;10539;53.686;9.158;2022-09-09T03:46:19;217.93;;;31.33;;
20758;SDS011;10539;53.686;9.158;2022-09-09T03:48:46;292.27;;;34.03;;
20758;SDS011;10539;53.686;9.158;2022-09-09T03:51:12;144.33;;;28.87;;
20758;SDS011;10539;53.686;9.158;2022-09-09T03:53:38;181.00;;;29.30;;
20758;SDS011;10539;53.686;9.158;2022-09-09T03:56:05;130.17;;;28.23;;
20758;SDS011;10539;53.686;9.158;2022-09-09T03:58:32;182.00;;;27.33;;
20758;SDS011;10539;53.686;9.158;2022-09-09T04:01:00;430.23;;;36.67;;
20758;SDS011;10539;53.686;9.158;2022-09-09T04:03:30;343.53;;;31.80;;
20758;SDS011;10539;53.686;9.158;2022-09-09T04:05:57;257.13;;;30.47;;
20758;SDS011;10539;53.686;9.158;2022-09-09T04:08:24;268.70;;;28.03;;
20758;SDS011;10539;53.686;9.158;2022-09-09T04:10:51;126.33;;;25.47;;
20758;SDS011;10539;53.686;9.158;2022-09-09T04:13:17;119.73;;;26.57;;
20758;SDS011;10539;53.686;9.158;2022-09-09T04:15:50;141.10;;;26.07;;
20758;SDS011;10539;53.686;9.158;2022-09-09T04:18:16;108.33;;;26.80;;
20758;SDS011;10539;53.686;9.158;2022-09-09T04:20:42;108.97;;;27.80;;
20758;SDS011;10539;53.686;9.158;2022-09-09T04:23:08;100.20;;;28.20;;
20758;SDS011;10539;53.686;9.158;2022-09-09T04:25:34;86.43;;;27.23;;
20758;SDS011;10539;53.686;9.158;2022-09-09T04:28:00;89.00;;;28.40;;
20758;SDS011;10539;53.686;9.158;2022-09-09T04:30:26;88.03;;;27.70;;
20758;SDS011;10539;53.686;9.158;2022-09-09T04:32:52;90.97;;;26.63;;
20758;SDS011;10539;53.686;9.158;2022-09-09T04:35:18;109.63;;;28.10;;
20758;SDS011;10539;53.686;9.158;2022-09-09T04:37:45;116.03;;;28.63;;
20758;SDS011;10539;53.686;9.158;2022-09-09T04:40:11;116.90;;;26.77;;
20758;SDS011;10539;53.686;9.158;2022-09-09T04:42:37;83.10;;;25.80;;
20758;SDS011;10539;53.686;9.158;2022-09-09T04:45:04;74.87;;;27.13;;
20758;SDS011;10539;53.686;9.158;2022-09-09T04:47:32;63.57;;;25.57;;
20758;SDS011;10539;53.686;9.158;2022-09-09T04:49:59;66.53;;;26.30;;
20758;SDS011;10539;53.686;9.158;2022-09-09T04:52:25;72.50;;;26.60;;
20758;SDS011;10539;53.686;9.158;2022-09-09T04:54:51;65.00;;;26.10;;
20758;SDS011;10539;53.686;9.158;2022-09-09T04:57:19;71.77;;;26.13;;
20758;SDS011;10539;53.686;9.158;2022-09-09T04:59:45;68.53;;;24.90;;
20758;SDS011;10539;53.686;9.158;2022-09-09T05:02:11;71.23;;;27.43;;
20758;SDS011;10539;53.686;9.158;2022-09-09T05:04:37;68.53;;;25.90;;
20758;SDS011;10539;53.686;9.158;2022-09-09T05:07:02;67.90;;;26.07;;
20758;SDS011;10539;53.686;9.158;2022-09-09T05:09:28;65.57;;;25.50;;
20758;SDS011;10539;53.686;9.158;2022-09-09T05:11:54;64.10;;;25.50;;
20758;SDS011;10539;53.686;9.158;2022-09-09T05:14:20;68.97;;;26.77;;
20758;SDS011;10539;53.686;9.158;2022-09-09T05:16:45;53.27;;;25.10;;
20758;SDS011;10539;53.686;9.158;2022-09-09T05:19:12;53.43;;;23.60;;
20758;SDS011;10539;53.686;9.158;2022-09-09T05:21:37;56.33;;;23.93;;
20758;SDS011;10539;53.686;9.158;2022-09-09T05:24:03;46.77;;;21.73;;
20758;SDS011;10539;53.686;9.158;2022-09-09T05:26:29;50.23;;;23.03;;
20758;SDS011;10539;53.686;9.158;2022-09-09T05:28:55;50.83;;;22.30;;
20758;SDS011;10539;53.686;9.158;2022-09-09T05:31:22;41.43;;;20.20;;
20758;SDS011;10539;53.686;9.158;2022-09-09T05:33:47;49.37;;;21.20;;
20758;SDS011;10539;53.686;9.158;2022-09-09T05:36:18;43.17;;;21.93;;
20758;SDS011;10539;53.686;9.158;2022-09-09T05:38:46;46.63;;;19.90;;
20758;SDS011;10539;53.686;9.158;2022-09-09T05:41:12;45.53;;;21.57;;
20758;SDS011;10539;53.686;9.158;2022-09-09T05:43:41;44.10;;;21.80;;
20758;SDS011;10539;53.686;9.158;2022-09-09T05:46:16;41.53;;;21.03;;
20758;SDS011;10539;53.686;9.158;2022-09-09T05:48:44;44.33;;;21.00;;
20758;SDS011;10539;53.686;9.158;2022-09-09T05:51:19;40.30;;;20.80;;
20758;SDS011;10539;53.686;9.158;2022-09-09T05:53:47;43.20;;;20.03;;
20758;SDS011;10539;53.686;9.158;2022-09-09T05:56:17;40.87;;;20.70;;
20758;SDS011;10539;53.686;9.158;2022-09-09T05:58:45;40.70;;;20.13;;
20758;SDS011;10539;53.686;9.158;2022-09-09T06:01:15;35.33;;;18.83;;
20758;SDS011;10539;53.686;9.158;2022-09-09T06:03:43;35.27;;;19.50;;
20758;SDS011;10539;53.686;9.158;2022-09-09T06:06:11;43.47;;;19.07;;
20758;SDS011;10539;53.686;9.158;2022-09-09T06:08:40;33.43;;;18.20;;
20758;SDS011;10539;53.686;9.158;2022-09-09T06:11:09;37.03;;;18.33;;
20758;SDS011;10539;53.686;9.158;2022-09-09T06:13:37;38.17;;;18.97;;
20758;SDS011;10539;53.686;9.158;2022-09-09T06:16:04;37.53;;;19.03;;
20758;SDS011;10539;53.686;9.158;2022-09-09T06:18:34;36.00;;;18.43;;
20758;SDS011;10539;53.686;9.158;2022-09-09T06:21:00;33.53;;;17.87;;
20758;SDS011;10539;53.686;9.158;2022-09-09T06:23:29;32.03;;;17.30;;
20758;SDS011;10539;53.686;9.158;2022-09-09T06:26:06;27.00;;;17.40;;
20758;SDS011;10539;53.686;9.158;2022-09-09T06:28:47;33.73;;;16.83;;
20758;SDS011;10539;53.686;9.158;2022-09-09T06:31:15;30.90;;;16.93;;
20758;SDS011;10539;53.686;9.158;2022-09-09T06:33:43;27.83;;;15.80;;
20758;SDS011;10539;53.686;9.158;2022-09-09T06:36:11;32.50;;;17.33;;
20758;SDS011;10539;53.686;9.158;2022-09-09T06:38:38;33.30;;;17.10;;
20758;SDS011;10539;53.686;9.158;2022-09-09T06:41:04;32.77;;;17.70;;
20758;SDS011;10539;53.686;9.158;2022-09-09T06:43:31;26.27;;;15.73;;
20758;SDS011;10539;53.686;9.158;2022-09-09T06:48:23;29.40;;;16.77;;
20758;SDS011;10539;53.686;9.158;2022-09-09T06:50:51;31.53;;;16.27;;
20758;SDS011;10539;53.686;9.158;2022-09-09T06:53:31;28.47;;;16.10;;
20758;SDS011;10539;53.686;9.158;2022-09-09T06:55:59;28.60;;;16.07;;
20758;SDS011;10539;53.686;9.158;2022-09-09T06:58:49;27.13;;;15.63;;
20758;SDS011;10539;53.686;9.158;2022-09-09T07:01:21;26.23;;;15.47;;
20758;SDS011;10539;53.686;9.158;2022-09-09T07:03:49;30.03;;;16.63;;
20758;SDS011;10539;53.686;9.158;2022-09-09T07:06:37;26.63;;;15.10;;
20758;SDS011;10539;53.686;9.158;2022-09-09T07:09:04;23.93;;;15.00;;
20758;SDS011;10539;53.686;9.158;2022-09-09T07:11:42;26.73;;;15.07;;
20758;SDS011;10539;53.686;9.158;2022-09-09T07:14:12;29.27;;;15.33;;
20758;SDS011;10539;53.686;9.158;2022-09-09T07:16:42;25.13;;;14.37;;
20758;SDS011;10539;53.686;9.158;2022-09-09T07:19:09;23.40;;;15.50;;
20758;SDS011;10539;53.686;9.158;2022-09-09T07:21:36;25.23;;;15.80;;
20758;SDS011;10539;53.686;9.158;2022-09-09T07:24:01;27.10;;;14.57;;
20758;SDS011;10539;53.686;9.158;2022-09-09T07:26:28;25.03;;;14.70;;
20758;SDS011;10539;53.686;9.158;2022-09-09T07:28:55;21.43;;;13.57;;
20758;SDS011;10539;53.686;9.158;2022-09-09T07:31:28;21.73;;;13.87;;
20758;SDS011;10539;53.686;9.158;2022-09-09T07:33:59;19.20;;;12.83;;
20758;SDS011;10539;53.686;9.158;2022-09-09T07:36:26;22.87;;;13.10;;
20758;SDS011;10539;53.686;9.158;2022-09-09T07:38:55;19.50;;;12.10;;
20758;SDS011;10539;53.686;9.158;2022-09-09T07:43:50;18.30;;;13.07;;
20758;SDS011;10539;53.686;9.158;2022-09-09T07:46:19;19.67;;;11.73;;
20758;SDS011;10539;53.686;9.158;2022-09-09T07:48:47;19.20;;;12.27;;
20758;SDS011;10539;53.686;9.158;2022-09-09T07:51:17;19.73;;;11.47;;
20758;SDS011;10539;53.686;9.158;2022-09-09T07:53:51;21.43;;;12.20;;
20758;SDS011;10539;53.686;9.158;2022-09-09T07:56:19;16.70;;;10.63;;
20758;SDS011;10539;53.686;9.158;2022-09-09T07:58:47;16.93;;;10.50;;
20758;SDS011;10539;53.686;9.158;2022-09-09T08:01:18;15.33;;;10.47;;
20758;SDS011;10539;53.686;9.158;2022-09-09T08:03:46;14.50;;;10.03;;
20758;SDS011;10539;53.686;9.158;2022-09-09T08:06:17;16.93;;;10.97;;
20758;SDS011;10539;53.686;9.158;2022-09-09T08:08:43;15.57;;;10.27;;
20758;SDS011;10539;53.686;9.158;2022-09-09T08:11:10;17.30;;;10.57;;
20758;SDS011;10539;53.686;9.158;2022-09-09T08:13:38;17.37;;;11.07;;
20758;SDS011;10539;53.686;9.158;2022-09-09T08:16:08;19.87;;;11.23;;
20758;SDS011;10539;53.686;9.158;2022-09-09T08:18:34;18.27;;;10.13;;
20758;SDS011;10539;53.686;9.158;2022-09-09T08:21:16;16.60;;;9.90;;
20758;SDS011;10539;53.686;9.158;2022-09-09T08:23:45;15.17;;;10.00;;
20758;SDS011;10539;53.686;9.158;2022-09-09T08:26:19;12.23;;;9.60;;
20758;SDS011;10539;53.686;9.158;2022-09-09T08:28:48;13.13;;;9.40;;
20758;SDS011;10539;53.686;9.158;2022-09-09T08:31:21;15.47;;;8.80;;
20758;SDS011;10539;53.686;9.158;2022-09-09T08:33:49;10.70;;;8.03;;
20758;SDS011;10539;53.686;9.158;2022-09-09T08:36:19;12.33;;;8.37;;
20758;SDS011;10539;53.686;9.158;2022-09-09T08:38:47;13.83;;;8.27;;
20758;SDS011;10539;53.686;9.158;2022-09-09T08:46:58;112.20;;;9.87;;
20758;SDS011;10539;53.686;9.158;2022-09-09T08:52:08;10.93;;;5.57;;
20758;SDS011;10539;53.686;9.158;2022-09-09T08:54:41;8.80;;;5.73;;
20758;SDS011;10539;53.686;9.158;2022-09-09T08:57:10;7.83;;;4.70;;
20758;SDS011;10539;53.686;9.158;2022-09-09T08:59:40;7.10;;;4.53;;
20758;SDS011;10539;53.686;9.158;2022-09-09T09:02:16;5.67;;;3.90;;
20758;SDS011;10539;53.686;9.158;2022-09-09T09:07:32;6.47;;;3.70;;
20758;SDS011;10539;53.686;9.158;2022-09-09T09:13:43;9.53;;;3.33;;
20758;SDS011;10539;53.686;9.158;2022-09-09T09:16:15;4.13;;;2.93;;
20758;SDS011;10539;53.686;9.158;2022-09-09T09:18:52;5.27;;;3.40;;
20758;SDS011;10539;53.686;9.158;2022-09-09T09:24:21;9.83;;;3.07;;
20758;SDS011;10539;53.686;9.158;2022-09-09T09:27:12;5.53;;;3.47;;
20758;SDS011;10539;53.686;9.158;2022-09-09T09:29:40;6.17;;;2.97;;
20758;SDS011;10539;53.686;9.158;2022-09-09T09:32:10;4.23;;;2.70;;
20758;SDS011;10539;53.686;9.158;2022-09-09T09:34:39;3.63;;;2.57;;
20758;SDS011;10539;53.686;9.158;2022-09-09T09:37:16;4.53;;;2.57;;
20758;SDS011;10539;53.686;9.158;2022-09-09T09:39:46;3.77;;;3.10;;
20758;SDS011;10539;53.686;9.158;2022-09-09T09:42:12;7.03;;;3.20;;
20758;SDS011;10539;53.686;9.158;2022-09-09T09:44:40;6.93;;;3.27;;
20758;SDS011;10539;53.686;9.158;2022-09-09T09:49:57;5.50;;;2.93;;
20758;SDS011;10539;53.686;9.158;2022-09-09T09:52:25;4.80;;;2.50;;
20758;SDS011;10539;53.686;9.158;2022-09-09T09:54:53;5.30;;;2.77;;
20758;SDS011;10539;53.686;9.158;2022-09-09T09:57:27;4.47;;;2.43;;
20758;SDS011;10539;53.686;9.158;2022-09-09T10:02:50;3.27;;;2.00;;
20758;SDS011;10539;53.686;9.158;2022-09-09T10:05:18;4.13;;;2.43;;
20758;SDS011;10539;53.686;9.158;2022-09-09T10:13:25;4.20;;;2.77;;
20758;SDS011;10539;53.686;9.158;2022-09-09T10:16:02;4.93;;;3.27;;
20758;SDS011;10539;53.686;9.158;2022-09-09T10:38:02;2.63;;;1.30;;
20758;SDS011;10539;53.686;9.158;2022-09-09T10:46:12;4.70;;;1.10;;
20758;SDS011;10539;53.686;9.158;2022-09-09T10:56:49;6.67;;;1.60;;
20758;SDS011;10539;53.686;9.158;2022-09-09T10:59:29;3.40;;;1.50;;
20758;SDS011;10539;53.686;9.158;2022-09-09T11:04:51;4.63;;;2.10;;
20758;SDS011;10539;53.686;9.158;2022-09-09T11:07:55;6.63;;;2.27;;
20758;SDS011;10539;53.686;9.158;2022-09-09T11:13:40;2.80;;;2.47;;
20758;SDS011;10539;53.686;9.158;2022-09-09T11:16:19;5.97;;;3.60;;
20758;SDS011;10539;53.686;9.158;2022-09-09T11:18:57;2.90;;;2.60;;
20758;SDS011;10539;53.686;9.158;2022-09-09T11:21:29;4.10;;;2.73;;
20758;SDS011;10539;53.686;9.158;2022-09-09T11:24:00;5.07;;;3.20;;
20758;SDS011;10539;53.686;9.158;2022-09-09T11:26:41;4.07;;;3.13;;
20758;SDS011;10539;53.686;9.158;2022-09-09T11:32:13;4.40;;;3.30;;
20758;SDS011;10539;53.686;9.158;2022-09-09T11:40:41;6.87;;;3.67;;
20758;SDS011;10539;53.686;9.158;2022-09-09T11:43:12;7.00;;;3.23;;
20758;SDS011;10539;53.686;9.158;2022-09-09T11:45:39;5.18;;;3.10;;
20758;SDS011;10539;53.686;9.158;2022-09-09T11:48:26;3.27;;;2.80;;
20758;SDS011;10539;53.686;9.158;2022-09-09T11:50:59;5.03;;;2.40;;
20758;SDS011;10539;53.686;9.158;2022-09-09T11:53:47;4.80;;;2.83;;
20758;SDS011;10539;53.686;9.158;2022-09-09T11:56:26;4.93;;;2.70;;
20758;SDS011;10539;53.686;9.158;2022-09-09T12:01:58;7.18;;;2.22;;
20758;SDS011;10539;53.686;9.158;2022-09-09T12:07:04;3.50;;;2.40;;
20758;SDS011;10539;53.686;9.158;2022-09-09T12:09:51;6.63;;;2.60;;
20758;SDS011;10539;53.686;9.158;2022-09-09T12:12:24;3.63;;;2.60;;
20758;SDS011;10539;53.686;9.158;2022-09-09T12:17:25;4.13;;;2.10;;
20758;SDS011;10539;53.686;9.158;2022-09-09T12:30:51;5.55;;;2.00;;
20758;SDS011;10539;53.686;9.158;2022-09-09T12:33:18;7.80;;;1.80;;
20758;SDS011;10539;53.686;9.158;2022-09-09T12:35:45;7.50;;;2.05;;
20758;SDS011;10539;53.686;9.158;2022-09-09T12:38:22;5.73;;;2.00;;
20758;SDS011;10539;53.686;9.158;2022-09-09T12:40:57;5.33;;;2.13;;
20758;SDS011;10539;53.686;9.158;2022-09-09T12:43:24;5.80;;;2.27;;
20758;SDS011;10539;53.686;9.158;2022-09-09T12:45:52;5.17;;;2.40;;
20758;SDS011;10539;53.686;9.158;2022-09-09T12:48:44;5.13;;;2.00;;
20758;SDS011;10539;53.686;9.158;2022-09-09T12:51:24;4.15;;;2.00;;
20758;SDS011;10539;53.686;9.158;2022-09-09T12:53:53;3.63;;;1.85;;
20758;SDS011;10539;53.686;9.158;2022-09-09T12:56:20;3.53;;;2.00;;
20758;SDS011;10539;53.686;9.158;2022-09-09T12:58:50;8.00;;;2.07;;
20758;SDS011;10539;53.686;9.158;2022-09-09T13:01:26;5.63;;;2.40;;
20758;SDS011;10539;53.686;9.158;2022-09-09T13:04:01;5.35;;;1.80;;
20758;SDS011;10539;53.686;9.158;2022-09-09T13:06:27;6.97;;;1.93;;
20758;SDS011;10539;53.686;9.158;2022-09-09T13:08:55;4.33;;;1.73;;
20758;SDS011;10539;53.686;9.158;2022-09-09T13:14:28;6.93;;;1.97;;
20758;SDS011;10539;53.686;9.158;2022-09-09T13:17:01;4.55;;;2.00;;
20758;SDS011;10539;53.686;9.158;2022-09-09T13:19:38;4.15;;;1.98;;
20758;SDS011;10539;53.686;9.158;2022-09-09T13:25:06;3.13;;;1.58;;
20758;SDS011;10539;53.686;9.158;2022-09-09T13:27:54;7.72;;;2.45;;
20758;SDS011;10539;53.686;9.158;2022-09-09T13:30:31;4.22;;;2.45;;
20758;SDS011;10539;53.686;9.158;2022-09-09T13:35:46;6.23;;;3.40;;
20758;SDS011;10539;53.686;9.158;2022-09-09T13:38:16;5.97;;;3.07;;
20758;SDS011;10539;53.686;9.158;2022-09-09T13:41:01;5.70;;;2.77;;
20758;SDS011;10539;53.686;9.158;2022-09-09T13:43:36;8.00;;;1.60;;
20758;SDS011;10539;53.686;9.158;2022-09-09T13:51:43;5.80;;;0.90;;
20758;SDS011;10539;53.686;9.158;2022-09-09T13:54:16;3.20;;;0.90;;
20758;SDS011;10539;53.686;9.158;2022-09-09T13:56:44;3.23;;;0.90;;
20758;SDS011;10539;53.686;9.158;2022-09-09T13:59:17;2.43;;;1.00;;
20758;SDS011;10539;53.686;9.158;2022-09-09T14:01:48;3.47;;;1.23;;
20758;SDS011;10539;53.686;9.158;2022-09-09T14:04:17;4.00;;;1.47;;
20758;SDS011;10539;53.686;9.158;2022-09-09T14:06:46;1.97;;;1.20;;
20758;SDS011;10539;53.686;9.158;2022-09-09T14:09:13;3.07;;;1.37;;
20758;SDS011;10539;53.686;9.158;2022-09-09T14:11:40;6.67;;;1.37;;
20758;SDS011;10539;53.686;9.158;2022-09-09T14:14:06;6.70;;;1.60;;
20758;SDS011;10539;53.686;9.158;2022-09-09T14:16:32;4.13;;;1.87;;
20758;SDS011;10539;53.686;9.158;2022-09-09T14:18:58;3.40;;;1.97;;
20758;SDS011;10539;53.686;9.158;2022-09-09T14:21:27;5.37;;;2.33;;
20758;SDS011;10539;53.686;9.158;2022-09-09T14:23:53;5.70;;;2.53;;
20758;SDS011;10539;53.686;9.158;2022-09-09T14:26:19;7.03;;;2.47;;
20758;SDS011;10539;53.686;9.158;2022-09-09T14:28:46;6.93;;;2.70;;
20758;SDS011;10539;53.686;9.158;2022-09-09T14:31:12;7.22;;;2.95;;
20758;SDS011;10539;53.686;9.158;2022-09-09T14:33:38;5.97;;;2.70;;
20758;SDS011;10539;53.686;9.158;2022-09-09T14:36:04;3.63;;;2.30;;
20758;SDS011;10539;53.686;9.158;2022-09-09T14:38:31;4.20;;;2.50;;
20758;SDS011;10539;53.686;9.158;2022-09-09T14:40:59;4.47;;;2.10;;
20758;SDS011;10539;53.686;9.158;2022-09-09T14:43:28;7.97;;;3.00;;
20758;SDS011;10539;53.686;9.158;2022-09-09T14:45:55;5.30;;;2.70;;
20758;SDS011;10539;53.686;9.158;2022-09-09T14:48:21;9.13;;;3.10;;
20758;SDS011;10539;53.686;9.158;2022-09-09T14:50:47;7.33;;;3.30;;
20758;SDS011;10539;53.686;9.158;2022-09-09T14:53:14;8.90;;;3.00;;
20758;SDS011;10539;53.686;9.158;2022-09-09T14:55:42;6.03;;;3.00;;
20758;SDS011;10539;53.686;9.158;2022-09-09T14:58:07;9.15;;;2.83;;
20758;SDS011;10539;53.686;9.158;2022-09-09T15:00:33;7.00;;;2.90;;
20758;SDS011;10539;53.686;9.158;2022-09-09T15:02:59;5.82;;;1.90;;
20758;SDS011;10539;53.686;9.158;2022-09-09T15:05:24;3.47;;;1.70;;
20758;SDS011;10539;53.686;9.158;2022-09-09T15:07:50;6.50;;;1.83;;
20758;SDS011;10539;53.686;9.158;2022-09-09T15:10:16;7.23;;;1.60;;
20758;SDS011;10539;53.686;9.158;2022-09-09T15:12:44;4.03;;;1.63;;
20758;SDS011;10539;53.686;9.158;2022-09-09T15:15:10;7.77;;;1.77;;
20758;SDS011;10539;53.686;9.158;2022-09-09T15:17:37;5.27;;;1.60;;
20758;SDS011;10539;53.686;9.158;2022-09-09T15:20:03;3.03;;;1.60;;
20758;SDS011;10539;53.686;9.158;2022-09-09T15:22:31;4.97;;;1.80;;
20758;SDS011;10539;53.686;9.158;2022-09-09T15:24:57;4.13;;;1.60;;
20758;SDS011;10539;53.686;9.158;2022-09-09T15:27:22;7.50;;;2.00;;
20758;SDS011;10539;53.686;9.158;2022-09-09T15:29:49;5.50;;;1.90;;
20758;SDS011;10539;53.686;9.158;2022-09-09T15:32:17;9.10;;;1.93;;
20758;SDS011;10539;53.686;9.158;2022-09-09T15:34:43;5.40;;;1.50;;
20758;SDS011;10539;53.686;9.158;2022-09-09T15:37:09;3.77;;;1.60;;
20758;SDS011;10539;53.686;9.158;2022-09-09T15:39:38;6.07;;;1.67;;
20758;SDS011;10539;53.686;9.158;2022-09-09T15:42:04;2.63;;;1.83;;
20758;SDS011;10539;53.686;9.158;2022-09-09T15:44:38;4.30;;;1.70;;
20758;SDS011;10539;53.686;9.158;2022-09-09T15:47:04;4.53;;;1.97;;
20758;SDS011;10539;53.686;9.158;2022-09-09T15:49:30;6.63;;;1.87;;
20758;SDS011;10539;53.686;9.158;2022-09-09T15:51:57;4.60;;;1.60;;
20758;SDS011;10539;53.686;9.158;2022-09-09T15:54:27;3.80;;;1.70;;
20758;SDS011;10539;53.686;9.158;2022-09-09T15:56:56;4.90;;;1.73;;
20758;SDS011;10539;53.686;9.158;2022-09-09T15:59:23;4.57;;;1.70;;
20758;SDS011;10539;53.686;9.158;2022-09-09T16:01:51;7.07;;;1.83;;
20758;SDS011;10539;53.686;9.158;2022-09-09T16:04:20;5.83;;;1.60;;
20758;SDS011;10539;53.686;9.158;2022-09-09T16:06:50;3.20;;;1.40;;
20758;SDS011;10539;53.686;9.158;2022-09-09T16:09:16;2.20;;;1.40;;
20758;SDS011;10539;53.686;9.158;2022-09-09T16:11:42;3.63;;;1.40;;
20758;SDS011;10539;53.686;9.158;2022-09-09T16:14:07;4.47;;;1.33;;
20758;SDS011;10539;53.686;9.158;2022-09-09T16:16:33;4.53;;;1.10;;
20758;SDS011;10539;53.686;9.158;2022-09-09T16:19:02;4.20;;;1.50;;
20758;SDS011;10539;53.686;9.158;2022-09-09T16:21:33;2.60;;;1.23;;
20758;SDS011;10539;53.686;9.158;2022-09-09T16:24:18;3.70;;;1.30;;
20758;SDS011;10539;53.686;9.158;2022-09-09T16:26:46;2.60;;;0.90;;
20758;SDS011;10539;53.686;9.158;2022-09-09T16:29:14;2.20;;;1.00;;
20758;SDS011;10539;53.686;9.158;2022-09-09T16:31:41;2.97;;;1.00;;
20758;SDS011;10539;53.686;9.158;2022-09-09T16:34:07;4.40;;;1.00;;
20758;SDS011;10539;53.686;9.158;2022-09-09T16:36:35;1.90;;;1.07;;
20758;SDS011;10539;53.686;9.158;2022-09-09T16:39:05;1.37;;;0.90;;
20758;SDS011;10539;53.686;9.158;2022-09-09T16:41:34;1.50;;;1.03;;
20758;SDS011;10539;53.686;9.158;2022-09-09T16:44:01;6.77;;;1.20;;
20758;SDS011;10539;53.686;9.158;2022-09-09T16:46:30;2.83;;;1.10;;
20758;SDS011;10539;53.686;9.158;2022-09-09T16:48:59;1.80;;;1.00;;
20758;SDS011;10539;53.686;9.158;2022-09-09T16:51:27;2.90;;;0.90;;
20758;SDS011;10539;53.686;9.158;2022-09-09T16:53:56;3.53;;;1.27;;
20758;SDS011;10539;53.686;9.158;2022-09-09T16:56:25;1.50;;;1.20;;
20758;SDS011;10539;53.686;9.158;2022-09-09T16:58:58;2.93;;;1.20;;
20758;SDS011;10539;53.686;9.158;2022-09-09T17:01:27;2.63;;;1.20;;
20758;SDS011;10539;53.686;9.158;2022-09-09T17:04:01;2.33;;;1.53;;
20758;SDS011;10539;53.686;9.158;2022-09-09T17:06:29;5.30;;;1.33;;
20758;SDS011;10539;53.686;9.158;2022-09-09T17:08:57;3.40;;;1.40;;
20758;SDS011;10539;53.686;9.158;2022-09-09T17:11:24;6.03;;;1.33;;
20758;SDS011;10539;53.686;9.158;2022-09-09T17:13:51;4.60;;;1.43;;
20758;SDS011;10539;53.686;9.158;2022-09-09T17:16:18;2.83;;;1.30;;
20758;SDS011;10539;53.686;9.158;2022-09-09T17:18:48;3.43;;;1.40;;
20758;SDS011;10539;53.686;9.158;2022-09-09T17:21:16;5.40;;;1.20;;
20758;SDS011;10539;53.686;9.158;2022-09-09T17:23:48;3.43;;;1.27;;
20758;SDS011;10539;53.686;9.158;2022-09-09T17:26:15;2.20;;;1.37;;
20758;SDS011;10539;53.686;9.158;2022-09-09T17:28:42;3.10;;;1.07;;
20758;SDS011;10539;53.686;9.158;2022-09-09T17:31:10;2.70;;;1.33;;
20758;SDS011;10539;53.686;9.158;2022-09-09T17:33:38;3.60;;;1.23;;